createdAt,value
2023-02-25T00:00:20.741Z,36.64
2023-02-25T00:01:20.763Z,36.63
2023-02-25T00:02:20.851Z,36.62
2023-02-25T00:03:20.843Z,36.59
2023-02-25T00:04:20.812Z,36.63
2023-02-25T00:05:20.824Z,36.61
2023-02-25T00:06:21.198Z,36.60
2023-02-25T00:07:20.897Z,36.60
2023-02-25T00:08:20.932Z,36.64
2023-02-25T00:09:20.959Z,36.63
2023-02-25T00:10:19.978Z,36.65
2023-02-25T00:11:21.017Z,36.64
2023-02-25T00:12:21.029Z,36.60
2023-02-25T00:13:21.035Z,36.64
2023-02-25T00:14:21.032Z,36.66
2023-02-25T00:15:21.051Z,36.60
2023-02-25T00:16:20.256Z,36.60
2023-02-25T00:17:20.087Z,36.60
2023-02-25T00:18:21.105Z,36.62
2023-02-25T00:19:21.088Z,36.59
2023-02-25T00:20:21.108Z,36.62
2023-02-25T00:21:21.105Z,36.63
2023-02-25T00:22:21.114Z,36.62
2023-02-25T00:23:21.097Z,36.69
2023-02-25T00:24:20.094Z,36.66
2023-02-25T00:25:21.110Z,36.65
2023-02-25T00:26:21.375Z,36.65
2023-02-25T00:27:20.088Z,36.66
2023-02-25T00:28:21.097Z,36.63
2023-02-25T00:29:21.085Z,36.62
2023-02-25T00:30:21.103Z,36.64
2023-02-25T00:31:20.256Z,36.62
2023-02-25T00:32:21.276Z,36.65
2023-02-25T00:33:20.112Z,36.58
2023-02-25T00:34:21.137Z,36.64
2023-02-25T00:35:20.125Z,36.61
2023-02-25T00:36:20.467Z,36.62
2023-02-25T00:37:21.211Z,36.63
2023-02-25T00:38:20.113Z,36.62
2023-02-25T00:39:21.172Z,36.63
2023-02-25T00:40:20.112Z,36.63
2023-02-25T00:41:21.112Z,36.60
2023-02-25T00:42:20.113Z,36.58
2023-02-25T00:43:20.134Z,36.62
2023-02-25T00:44:21.120Z,36.62
2023-02-25T00:45:20.130Z,36.58
2023-02-25T00:46:21.550Z,36.59
2023-02-25T00:47:21.121Z,36.58
2023-02-25T00:48:20.107Z,36.63
2023-02-25T00:49:31.780Z,36.60
2023-02-25T00:50:21.127Z,36.62
2023-02-25T00:51:21.098Z,36.59
2023-02-25T00:52:21.104Z,36.61
2023-02-25T00:53:20.109Z,36.63
2023-02-25T00:54:21.070Z,36.64
2023-02-25T00:55:21.067Z,36.64
2023-02-25T00:56:20.579Z,36.68
2023-02-25T00:57:20.069Z,36.68
2023-02-25T00:58:21.056Z,36.63
2023-02-25T00:59:20.055Z,36.67
2023-02-25T01:00:21.072Z,36.66
2023-02-25T01:01:21.202Z,36.65
2023-02-25T01:02:20.060Z,36.70
2023-02-25T01:03:21.006Z,36.65
2023-02-25T01:04:21.080Z,36.66
2023-02-25T01:05:21.015Z,36.67
2023-02-25T01:06:20.350Z,36.67
2023-02-25T01:07:19.983Z,36.69
2023-02-25T01:08:20.974Z,36.68
2023-02-25T01:09:21.001Z,36.69
2023-02-25T01:10:19.987Z,36.69
2023-02-25T01:11:21.042Z,36.68
2023-02-25T01:12:20.954Z,36.72
2023-02-25T01:13:20.942Z,36.68
2023-02-25T01:14:20.939Z,36.70
2023-02-25T01:15:20.936Z,36.69
2023-02-25T01:16:21.441Z,36.67
2023-02-25T01:17:20.909Z,36.70
2023-02-25T01:18:20.920Z,36.69
2023-02-25T01:19:20.896Z,36.69
2023-02-25T01:20:20.904Z,36.68
2023-02-25T01:21:20.884Z,36.67
2023-02-25T01:22:20.927Z,36.66
2023-02-25T01:23:20.882Z,36.67
2023-02-25T01:24:20.877Z,36.71
2023-02-25T01:25:20.871Z,36.64
2023-02-25T01:26:19.865Z,36.62
2023-02-25T01:27:20.840Z,36.68
2023-02-25T01:28:20.847Z,36.69
2023-02-25T01:29:20.842Z,36.71
2023-02-25T01:30:20.822Z,36.68
2023-02-25T01:31:20.921Z,36.70
2023-02-25T01:32:20.976Z,36.66
2023-02-25T01:33:20.817Z,36.65
2023-02-25T01:34:20.807Z,36.65
2023-02-25T01:35:20.812Z,36.64
2023-02-25T01:36:21.060Z,36.69
2023-02-25T01:37:20.804Z,36.65
2023-02-25T01:38:20.804Z,36.67
2023-02-25T01:39:19.762Z,36.68
2023-02-25T01:40:20.765Z,36.64
2023-02-25T01:41:20.767Z,36.65
2023-02-25T01:42:20.756Z,36.66
2023-02-25T01:43:19.750Z,36.66
2023-02-25T01:44:20.744Z,36.66
2023-02-25T01:45:20.746Z,36.65
2023-02-25T01:46:19.886Z,36.69
2023-02-25T01:47:20.748Z,36.69
2023-02-25T01:48:20.698Z,36.69
2023-02-25T01:49:20.690Z,36.69
2023-02-25T01:50:20.688Z,36.69
2023-02-25T01:51:20.680Z,36.69
2023-02-25T01:52:20.682Z,36.67
2023-02-25T01:53:20.668Z,36.67
2023-02-25T01:54:20.698Z,36.64
2023-02-25T01:55:20.654Z,36.68
2023-02-25T01:56:21.066Z,36.67
2023-02-25T01:57:20.649Z,36.63
2023-02-25T01:58:20.636Z,36.67
2023-02-25T01:59:20.634Z,36.61
2023-02-25T02:00:19.634Z,36.61
2023-02-25T02:01:20.615Z,36.61
2023-02-25T02:02:20.786Z,36.66
2023-02-25T02:03:20.615Z,36.63
2023-02-25T02:04:19.599Z,36.65
2023-02-25T02:05:20.601Z,36.66
2023-02-25T02:06:19.715Z,36.65
2023-02-25T02:07:19.585Z,36.68
2023-02-25T02:08:19.559Z,36.64
2023-02-25T02:09:20.608Z,36.65
2023-02-25T02:10:20.595Z,36.64
2023-02-25T02:11:20.537Z,36.59
2023-02-25T02:12:19.541Z,36.56
2023-02-25T02:13:20.538Z,36.54
2023-02-25T02:14:20.535Z,36.51
2023-02-25T02:15:20.527Z,36.52
2023-02-25T02:16:20.811Z,36.46
2023-02-25T02:17:19.498Z,36.51
2023-02-25T02:18:20.497Z,36.45
2023-02-25T02:19:20.518Z,36.47
2023-02-25T02:20:20.582Z,36.51
2023-02-25T02:21:19.500Z,36.52
2023-02-25T02:22:20.503Z,36.46
2023-02-25T02:23:19.493Z,36.43
2023-02-25T02:24:20.619Z,36.44
2023-02-25T02:25:19.515Z,36.46
2023-02-25T02:26:20.807Z,36.51
2023-02-25T02:27:19.521Z,36.50
2023-02-25T02:28:19.527Z,36.48
2023-02-25T02:29:20.565Z,36.53
2023-02-25T02:30:20.551Z,36.51
2023-02-25T02:31:20.659Z,36.47
2023-02-25T02:32:20.689Z,36.50
2023-02-25T02:33:20.580Z,36.53
2023-02-25T02:34:20.604Z,36.50
2023-02-25T02:35:20.594Z,36.56
2023-02-25T02:36:21.032Z,36.54
2023-02-25T02:37:19.615Z,36.54
2023-02-25T02:38:20.618Z,36.44
2023-02-25T02:39:19.623Z,36.52
2023-02-25T02:40:20.667Z,36.56
2023-02-25T02:41:20.649Z,36.51
2023-02-25T02:42:19.700Z,36.46
2023-02-25T02:43:20.697Z,36.54
2023-02-25T02:44:20.718Z,36.46
2023-02-25T02:45:20.730Z,36.46
2023-02-25T02:46:21.230Z,36.46
2023-02-25T02:47:19.799Z,36.44
2023-02-25T02:48:19.800Z,36.43
2023-02-25T02:49:20.847Z,36.46
2023-02-25T02:50:20.872Z,36.42
2023-02-25T02:51:20.884Z,36.42
2023-02-25T02:52:20.889Z,36.32
2023-02-25T02:53:20.912Z,36.41
2023-02-25T02:54:20.923Z,36.42
2023-02-25T02:55:20.954Z,36.45
2023-02-25T02:56:21.323Z,36.46
2023-02-25T02:57:20.994Z,36.38
2023-02-25T02:58:21.018Z,36.43
2023-02-25T02:59:21.126Z,36.41
2023-02-25T03:00:20.069Z,36.41
2023-02-25T03:01:21.133Z,36.39
2023-02-25T03:02:21.060Z,36.36
2023-02-25T03:03:21.080Z,36.39
2023-02-25T03:04:21.129Z,36.44
2023-02-25T03:05:21.141Z,36.34
2023-02-25T03:06:21.443Z,36.36
2023-02-25T03:07:20.156Z,36.38
2023-02-25T03:08:21.183Z,36.36
2023-02-25T03:09:21.206Z,36.39
2023-02-25T03:10:21.233Z,36.41
2023-02-25T03:11:21.237Z,36.35
2023-02-25T03:12:21.278Z,36.34
2023-02-25T03:13:21.294Z,36.33
2023-02-25T03:14:21.330Z,36.36
2023-02-25T03:15:21.331Z,36.33
2023-02-25T03:16:21.849Z,36.35
2023-02-25T03:17:20.368Z,36.35
2023-02-25T03:18:21.396Z,36.34
2023-02-25T03:19:20.411Z,36.34
2023-02-25T03:20:20.432Z,36.37
2023-02-25T03:21:21.467Z,36.32
2023-02-25T03:22:21.466Z,36.30
2023-02-25T03:23:21.483Z,36.35
2023-02-25T03:24:21.506Z,36.38
2023-02-25T03:25:20.576Z,36.33
2023-02-25T03:26:21.937Z,36.32
2023-02-25T03:27:21.728Z,36.23
2023-02-25T03:28:21.605Z,36.31
2023-02-25T03:29:21.617Z,36.32
2023-02-25T03:30:20.676Z,36.38
2023-02-25T03:31:21.831Z,36.36
2023-02-25T03:32:21.800Z,36.29
2023-02-25T03:33:21.754Z,36.29
2023-02-25T03:34:21.804Z,36.28
2023-02-25T03:35:21.834Z,36.35
2023-02-25T03:36:22.236Z,36.29
2023-02-25T03:37:21.925Z,36.30
2023-02-25T03:38:21.967Z,36.32
2023-02-25T03:39:20.988Z,36.31
2023-02-25T03:40:22.040Z,36.30
2023-02-25T03:41:22.088Z,36.32
2023-02-25T03:42:21.124Z,36.33
2023-02-25T03:43:21.150Z,36.30
2023-02-25T03:44:22.199Z,36.27
2023-02-25T03:45:22.227Z,36.33
2023-02-25T03:46:22.791Z,36.29
2023-02-25T03:47:22.295Z,36.30
2023-02-25T03:48:22.345Z,36.32
2023-02-25T03:49:22.389Z,36.32
2023-02-25T03:50:22.425Z,36.27
2023-02-25T03:51:22.458Z,36.24
2023-02-25T03:52:22.489Z,36.25
2023-02-25T03:53:22.528Z,36.23
2023-02-25T03:54:22.563Z,36.27
2023-02-25T03:55:22.590Z,36.22
2023-02-25T03:56:23.053Z,36.22
2023-02-25T03:57:21.669Z,36.22
2023-02-25T03:58:22.709Z,36.27
2023-02-25T03:59:22.739Z,36.23
2023-02-25T04:00:21.777Z,36.27
2023-02-25T04:01:22.841Z,36.28
2023-02-25T04:02:22.952Z,36.25
2023-02-25T04:03:21.905Z,36.24
2023-02-25T04:04:23.059Z,36.27
2023-02-25T04:05:21.990Z,36.28
2023-02-25T04:06:23.326Z,36.28
2023-02-25T04:07:23.058Z,36.31
2023-02-25T04:08:23.118Z,36.23
2023-02-25T04:09:23.163Z,36.27
2023-02-25T04:10:22.202Z,36.19
2023-02-25T04:11:22.256Z,36.18
2023-02-25T04:12:23.303Z,36.22
2023-02-25T04:13:23.348Z,36.26
2023-02-25T04:14:23.399Z,36.23
2023-02-25T04:15:23.483Z,36.20
2023-02-25T04:16:23.905Z,36.14
2023-02-25T04:17:22.541Z,36.16
2023-02-25T04:18:22.630Z,36.26
2023-02-25T04:19:22.678Z,36.16
2023-02-25T04:20:23.732Z,36.18
2023-02-25T04:21:23.761Z,36.13
2023-02-25T04:22:23.809Z,36.14
2023-02-25T04:23:23.852Z,36.17
2023-02-25T04:24:23.886Z,36.18
2023-02-25T04:25:23.981Z,36.21
2023-02-25T04:26:24.372Z,36.19
2023-02-25T04:27:24.051Z,36.20
2023-02-25T04:28:24.083Z,36.13
2023-02-25T04:29:24.130Z,36.12
2023-02-25T04:30:23.230Z,36.18
2023-02-25T04:31:24.404Z,36.13
2023-02-25T04:32:24.352Z,36.10
2023-02-25T04:33:23.332Z,36.13
2023-02-25T04:34:23.396Z,36.06
2023-02-25T04:35:25.186Z,36.13
2023-02-25T04:36:24.744Z,36.15
2023-02-25T04:37:24.545Z,36.11
2023-02-25T04:38:24.558Z,36.16
2023-02-25T04:39:23.622Z,36.12
2023-02-25T04:40:23.665Z,36.13
2023-02-25T04:41:23.707Z,36.08
2023-02-25T04:42:25.081Z,36.11
2023-02-25T04:43:24.823Z,36.15
2023-02-25T04:44:24.855Z,36.05
2023-02-25T04:45:26.746Z,36.05
2023-02-25T04:46:25.311Z,36.05
2023-02-25T04:47:24.902Z,36.01
2023-02-25T04:48:24.883Z,36.10
2023-02-25T04:49:24.895Z,36.08
2023-02-25T04:50:24.895Z,36.09
2023-02-25T04:51:23.860Z,36.09
2023-02-25T04:52:24.851Z,36.11
2023-02-25T04:53:24.842Z,36.08
2023-02-25T04:54:24.850Z,36.06
2023-02-25T04:55:23.825Z,36.09
2023-02-25T04:56:25.180Z,36.01
2023-02-25T04:57:24.814Z,36.02
2023-02-25T04:58:24.802Z,36.05
2023-02-25T04:59:24.804Z,36.00
2023-02-25T05:00:23.815Z,36.03
2023-02-25T05:01:24.816Z,36.00
2023-02-25T05:02:24.816Z,36.03
2023-02-25T05:03:24.870Z,36.08
2023-02-25T05:04:24.939Z,36.02
2023-02-25T05:05:25.002Z,36.01
2023-02-25T05:06:25.449Z,36.06
2023-02-25T05:07:24.126Z,35.98
2023-02-25T05:08:25.213Z,35.95
2023-02-25T05:09:24.254Z,36.00
2023-02-25T05:10:25.296Z,36.00
2023-02-25T05:11:25.326Z,36.00
2023-02-25T05:12:25.390Z,35.93
2023-02-25T05:13:25.429Z,36.01
2023-02-25T05:14:25.508Z,35.96
2023-02-25T05:15:25.560Z,36.00
2023-02-25T05:16:26.381Z,35.98
2023-02-25T05:17:24.670Z,35.97
2023-02-25T05:18:25.749Z,35.87
2023-02-25T05:19:24.793Z,35.96
2023-02-25T05:20:24.897Z,35.96
2023-02-25T05:21:25.898Z,35.90
2023-02-25T05:22:26.003Z,35.85
2023-02-25T05:23:25.014Z,35.98
2023-02-25T05:24:26.072Z,35.90
2023-02-25T05:25:26.134Z,35.95
2023-02-25T05:26:25.521Z,35.93
2023-02-25T05:27:26.239Z,35.94
2023-02-25T05:28:26.307Z,35.92
2023-02-25T05:29:26.389Z,35.85
2023-02-25T05:30:26.412Z,35.89
2023-02-25T05:31:26.654Z,35.82
2023-02-25T05:32:26.622Z,35.76
2023-02-25T05:33:25.588Z,35.78
2023-02-25T05:34:26.652Z,35.84
2023-02-25T05:35:26.713Z,35.91
2023-02-25T05:36:28.455Z,35.78
2023-02-25T05:37:26.801Z,35.86
2023-02-25T05:38:26.782Z,35.82
2023-02-25T05:39:26.758Z,35.80
2023-02-25T05:40:26.737Z,35.84
2023-02-25T05:41:26.737Z,35.79
2023-02-25T05:42:26.749Z,35.89
2023-02-25T05:43:26.823Z,35.79
2023-02-25T05:44:26.714Z,35.82
2023-02-25T05:45:26.721Z,35.79
2023-02-25T05:46:27.260Z,35.83
2023-02-25T05:47:26.705Z,35.79
2023-02-25T05:48:26.685Z,35.78
2023-02-25T05:49:26.693Z,35.78
2023-02-25T05:50:26.678Z,35.77
2023-02-25T05:51:25.666Z,35.83
2023-02-25T05:52:26.713Z,35.77
2023-02-25T05:53:26.651Z,35.70
2023-02-25T05:54:26.706Z,35.82
2023-02-25T05:55:26.657Z,35.73
2023-02-25T05:56:27.278Z,35.81
2023-02-25T05:57:26.663Z,35.76
2023-02-25T05:58:26.631Z,35.75
2023-02-25T05:59:26.692Z,35.75
2023-02-25T06:00:26.750Z,35.74
2023-02-25T06:01:26.832Z,35.73
2023-02-25T06:02:26.988Z,35.79
2023-02-25T06:03:27.032Z,35.76
2023-02-25T06:04:27.033Z,35.72
2023-02-25T06:05:27.056Z,35.76
2023-02-25T06:06:27.144Z,35.75
2023-02-25T06:07:27.209Z,35.66
2023-02-25T06:08:27.250Z,35.75
2023-02-25T06:09:26.299Z,35.69
2023-02-25T06:10:27.597Z,35.71
2023-02-25T06:11:26.437Z,35.69
2023-02-25T06:12:26.507Z,35.65
2023-02-25T06:13:26.552Z,35.65
2023-02-25T06:14:27.608Z,35.57
2023-02-25T06:15:26.665Z,35.61
2023-02-25T06:16:27.089Z,35.60
2023-02-25T06:17:26.760Z,35.66
2023-02-25T06:18:27.836Z,35.70
2023-02-25T06:19:27.891Z,35.67
2023-02-25T06:20:26.954Z,35.66
2023-02-25T06:21:28.011Z,35.62
2023-02-25T06:22:28.062Z,35.68
2023-02-25T06:23:28.119Z,35.63
2023-02-25T06:24:28.175Z,35.63
2023-02-25T06:25:28.229Z,35.61
2023-02-25T06:26:28.311Z,35.63
2023-02-25T06:27:28.339Z,35.70
2023-02-25T06:28:28.401Z,35.63
2023-02-25T06:29:28.452Z,35.67
2023-02-25T06:30:28.547Z,35.61
2023-02-25T06:31:28.625Z,35.63
2023-02-25T06:32:28.910Z,35.59
2023-02-25T06:33:28.727Z,35.58
2023-02-25T06:34:28.711Z,35.59
2023-02-25T06:35:28.756Z,35.59
2023-02-25T06:36:27.814Z,35.58
2023-02-25T06:37:28.864Z,35.56
2023-02-25T06:38:27.935Z,35.56
2023-02-25T06:39:28.983Z,35.57
2023-02-25T06:40:28.040Z,35.59
2023-02-25T06:41:29.117Z,35.61
2023-02-25T06:42:29.167Z,35.55
2023-02-25T06:43:29.209Z,35.59
2023-02-25T06:44:29.268Z,35.61
2023-02-25T06:45:29.316Z,35.53
2023-02-25T06:46:29.449Z,35.57
2023-02-25T06:47:29.434Z,35.54
2023-02-25T06:48:29.506Z,35.57
2023-02-25T06:49:28.543Z,35.53
2023-02-25T06:50:29.603Z,35.48
2023-02-25T06:51:29.655Z,35.52
2023-02-25T06:52:29.715Z,35.56
2023-02-25T06:53:29.787Z,35.55
2023-02-25T06:54:28.843Z,35.59
2023-02-25T06:55:28.895Z,35.56
2023-02-25T06:56:29.970Z,35.51
2023-02-25T06:57:30.037Z,35.53
2023-02-25T06:58:30.104Z,35.55
2023-02-25T06:59:30.167Z,35.50
2023-02-25T07:00:30.378Z,35.50
2023-02-25T07:01:30.331Z,35.48
2023-02-25T07:02:30.359Z,35.44
2023-02-25T07:03:29.398Z,35.52
2023-02-25T07:04:30.570Z,35.47
2023-02-25T07:05:29.534Z,35.49
2023-02-25T07:06:30.599Z,35.48
2023-02-25T07:07:30.672Z,35.50
2023-02-25T07:08:29.734Z,35.51
2023-02-25T07:09:30.782Z,35.50
2023-02-25T07:10:30.842Z,35.43
2023-02-25T07:11:30.915Z,35.49
2023-02-25T07:12:29.981Z,35.50
2023-02-25T07:13:31.031Z,35.48
2023-02-25T07:14:31.120Z,35.44
2023-02-25T07:15:30.176Z,35.49
2023-02-25T07:16:31.211Z,35.48
2023-02-25T07:17:30.295Z,35.46
2023-02-25T07:18:31.350Z,35.40
2023-02-25T07:19:31.423Z,35.48
2023-02-25T07:20:30.470Z,35.46
2023-02-25T07:21:31.540Z,35.43
2023-02-25T07:22:31.608Z,35.43
2023-02-25T07:23:31.677Z,35.40
2023-02-25T07:24:30.724Z,35.43
2023-02-25T07:25:31.813Z,35.44
2023-02-25T07:26:31.855Z,35.42
2023-02-25T07:27:31.907Z,35.42
2023-02-25T07:28:31.966Z,35.42
2023-02-25T07:29:32.042Z,35.44
2023-02-25T07:30:32.146Z,35.42
2023-02-25T07:31:31.323Z,35.39
2023-02-25T07:32:32.419Z,35.38
2023-02-25T07:33:31.280Z,35.33
2023-02-25T07:34:32.345Z,35.37
2023-02-25T07:35:31.389Z,35.37
2023-02-25T07:36:32.480Z,35.34
2023-02-25T07:37:32.506Z,35.39
2023-02-25T07:38:32.602Z,35.34
2023-02-25T07:39:31.639Z,35.33
2023-02-25T07:40:32.707Z,35.33
2023-02-25T07:41:32.749Z,35.36
2023-02-25T07:42:32.813Z,35.36
2023-02-25T07:43:32.888Z,35.36
2023-02-25T07:44:32.955Z,35.37
2023-02-25T07:45:33.012Z,35.38
2023-02-25T07:46:33.178Z,35.35
2023-02-25T07:47:32.134Z,35.36
2023-02-25T07:48:33.198Z,35.33
2023-02-25T07:49:33.245Z,35.32
2023-02-25T07:50:32.317Z,35.29
2023-02-25T07:51:33.385Z,35.31
2023-02-25T07:52:32.443Z,35.32
2023-02-25T07:53:33.524Z,35.30
2023-02-25T07:54:34.374Z,35.31
2023-02-25T07:55:33.635Z,35.30
2023-02-25T07:56:32.711Z,35.30
2023-02-25T07:57:33.757Z,35.29
2023-02-25T07:58:33.826Z,35.24
2023-02-25T07:59:33.887Z,35.26
2023-02-25T08:00:33.947Z,35.25
2023-02-25T08:01:33.004Z,35.21
2023-02-25T08:02:34.179Z,35.27
2023-02-25T08:03:34.142Z,35.27
2023-02-25T08:04:33.300Z,35.24
2023-02-25T08:05:34.252Z,35.26
2023-02-25T08:06:34.329Z,35.24
2023-02-25T08:07:34.390Z,35.18
2023-02-25T08:08:34.459Z,35.19
2023-02-25T08:09:34.516Z,35.23
2023-02-25T08:10:34.544Z,35.23
2023-02-25T08:11:34.606Z,35.20
2023-02-25T08:12:34.618Z,35.20
2023-02-25T08:13:34.676Z,35.18
2023-02-25T08:14:34.699Z,35.19
2023-02-25T08:15:34.744Z,35.20
2023-02-25T08:16:34.778Z,35.17
2023-02-25T08:17:33.809Z,35.16
2023-02-25T08:18:34.913Z,35.15
2023-02-25T08:19:34.872Z,35.14
2023-02-25T08:20:34.917Z,35.14
2023-02-25T08:21:35.013Z,35.15
2023-02-25T08:22:35.050Z,35.13
2023-02-25T08:23:35.136Z,35.10
2023-02-25T08:24:35.172Z,35.13
2023-02-25T08:25:35.228Z,35.13
2023-02-25T08:26:35.293Z,35.14
2023-02-25T08:27:35.376Z,35.13
2023-02-25T08:28:37.225Z,35.11
2023-02-25T08:29:35.424Z,35.11
2023-02-25T08:30:35.454Z,35.10
2023-02-25T08:31:35.536Z,35.10
2023-02-25T08:32:34.561Z,35.06
2023-02-25T08:33:35.432Z,35.06
2023-02-25T08:34:34.426Z,35.06
2023-02-25T08:35:34.377Z,35.07
2023-02-25T08:36:35.380Z,35.03
2023-02-25T08:37:35.374Z,35.06
2023-02-25T08:38:34.364Z,35.05
2023-02-25T08:39:34.359Z,35.00
2023-02-25T08:40:35.367Z,35.06
2023-02-25T08:41:35.342Z,35.05
2023-02-25T08:42:34.329Z,34.99
2023-02-25T08:43:35.322Z,35.01
2023-02-25T08:44:35.320Z,35.04
2023-02-25T08:45:35.320Z,35.02
2023-02-25T08:46:34.356Z,34.99
2023-02-25T08:47:35.333Z,34.97
2023-02-25T08:48:35.294Z,34.98
2023-02-25T08:49:35.338Z,34.96
2023-02-25T08:50:35.410Z,34.98
2023-02-25T08:51:35.450Z,34.99
2023-02-25T08:52:35.506Z,34.97
2023-02-25T08:53:35.544Z,34.93
2023-02-25T08:54:35.577Z,35.00
2023-02-25T08:55:35.628Z,34.97
2023-02-25T08:56:34.695Z,34.96
2023-02-25T08:57:35.746Z,34.96
2023-02-25T08:58:35.814Z,34.93
2023-02-25T08:59:34.836Z,34.94
2023-02-25T09:00:35.987Z,34.92
2023-02-25T09:01:36.000Z,34.92
2023-02-25T09:02:35.995Z,34.91
2023-02-25T09:03:36.070Z,34.89
2023-02-25T09:04:36.236Z,34.93
2023-02-25T09:05:36.181Z,34.89
2023-02-25T09:06:36.288Z,34.88
2023-02-25T09:07:35.280Z,34.87
2023-02-25T09:08:36.357Z,34.90
2023-02-25T09:09:36.402Z,34.91
2023-02-25T09:10:49.533Z,34.89
2023-02-25T09:11:36.461Z,34.90
2023-02-25T09:12:36.474Z,34.88
2023-02-25T09:13:36.441Z,34.87
2023-02-25T09:14:35.449Z,34.84
2023-02-25T09:15:36.430Z,34.85
2023-02-25T09:16:36.529Z,34.83
2023-02-25T09:17:35.419Z,34.84
2023-02-25T09:18:36.415Z,34.84
2023-02-25T09:19:36.418Z,34.84
2023-02-25T09:20:35.419Z,34.83
2023-02-25T09:21:36.408Z,34.82
2023-02-25T09:22:36.426Z,34.83
2023-02-25T09:23:36.396Z,34.81
2023-02-25T09:24:36.382Z,34.80
2023-02-25T09:25:36.369Z,34.75
2023-02-25T09:26:36.381Z,34.81
2023-02-25T09:27:36.361Z,34.81
2023-02-25T09:28:36.352Z,34.78
2023-02-25T09:29:36.361Z,34.76
2023-02-25T09:30:36.345Z,34.77
2023-02-25T09:31:36.466Z,34.79
2023-02-25T09:32:36.540Z,34.74
2023-02-25T09:33:36.331Z,34.75
2023-02-25T09:34:36.338Z,34.74
2023-02-25T09:35:36.309Z,34.72
2023-02-25T09:36:36.305Z,34.73
2023-02-25T09:37:36.286Z,34.66
2023-02-25T09:38:36.333Z,34.71
2023-02-25T09:39:36.278Z,34.70
2023-02-25T09:40:36.266Z,34.72
2023-02-25T09:41:36.296Z,34.70
2023-02-25T09:42:36.325Z,34.69
2023-02-25T09:43:36.363Z,34.67
2023-02-25T09:44:36.409Z,34.69
2023-02-25T09:45:36.532Z,34.66
2023-02-25T09:46:35.428Z,34.69
2023-02-25T09:47:36.501Z,34.70
2023-02-25T09:48:36.502Z,34.68
2023-02-25T09:49:35.538Z,34.66
2023-02-25T09:50:36.549Z,34.66
2023-02-25T09:51:36.536Z,34.67
2023-02-25T09:52:35.553Z,34.66
2023-02-25T09:53:35.529Z,34.63
2023-02-25T09:54:36.564Z,34.62
2023-02-25T09:55:35.532Z,34.59
2023-02-25T09:56:35.532Z,34.61
2023-02-25T09:57:36.546Z,34.60
2023-02-25T09:58:35.561Z,34.59
2023-02-25T09:59:36.616Z,34.61
2023-02-25T10:00:35.598Z,34.59
2023-02-25T10:01:35.611Z,34.61
2023-02-25T10:02:36.724Z,34.58
2023-02-25T10:03:36.604Z,34.58
2023-02-25T10:04:36.638Z,34.59
2023-02-25T10:05:36.626Z,34.59
2023-02-25T10:06:35.644Z,34.58
2023-02-25T10:07:36.680Z,34.56
2023-02-25T10:08:36.685Z,34.53
2023-02-25T10:09:35.718Z,34.58
2023-02-25T10:10:36.769Z,34.56
2023-02-25T10:11:36.792Z,34.58
2023-02-25T10:12:36.821Z,34.54
2023-02-25T10:13:36.850Z,34.52
2023-02-25T10:14:36.899Z,34.53
2023-02-25T10:15:35.950Z,34.54
2023-02-25T10:16:36.024Z,34.55
2023-02-25T10:17:37.036Z,34.55
2023-02-25T10:18:37.067Z,34.51
2023-02-25T10:19:36.130Z,34.52
2023-02-25T10:20:36.159Z,34.54
2023-02-25T10:21:37.942Z,34.53
2023-02-25T10:22:37.262Z,34.52
2023-02-25T10:23:37.288Z,34.53
2023-02-25T10:24:37.351Z,34.51
2023-02-25T10:25:37.367Z,34.50
2023-02-25T10:26:37.425Z,34.48
2023-02-25T10:27:37.429Z,34.51
2023-02-25T10:28:37.456Z,34.50
2023-02-25T10:29:37.475Z,34.50
2023-02-25T10:30:37.607Z,34.48
2023-02-25T10:31:37.697Z,34.51
2023-02-25T10:32:36.635Z,34.50
2023-02-25T10:33:37.564Z,34.45
2023-02-25T10:34:36.586Z,34.44
2023-02-25T10:35:37.636Z,34.46
2023-02-25T10:36:36.665Z,34.47
2023-02-25T10:37:37.707Z,34.46
2023-02-25T10:38:37.741Z,34.47
2023-02-25T10:39:37.763Z,34.49
2023-02-25T10:40:37.794Z,34.44
2023-02-25T10:41:37.808Z,34.48
2023-02-25T10:42:37.833Z,34.43
2023-02-25T10:43:37.796Z,34.44
2023-02-25T10:44:37.851Z,34.43
2023-02-25T10:45:37.781Z,34.46
2023-02-25T10:46:37.884Z,34.44
2023-02-25T10:47:37.805Z,34.43
2023-02-25T10:48:37.770Z,34.44
2023-02-25T10:49:37.779Z,34.40
2023-02-25T10:50:45.365Z,34.42
2023-02-25T10:51:37.773Z,34.43
2023-02-25T10:52:37.745Z,34.39
2023-02-25T10:53:37.752Z,34.43
2023-02-25T10:54:37.735Z,34.42
2023-02-25T10:55:37.743Z,34.39
2023-02-25T10:56:37.783Z,34.39
2023-02-25T10:57:37.756Z,34.38
2023-02-25T10:58:37.759Z,34.39
2023-02-25T10:59:37.713Z,34.37
2023-02-25T11:00:37.722Z,34.39
2023-02-25T11:01:36.791Z,34.40
2023-02-25T11:02:37.734Z,34.40
2023-02-25T11:03:37.693Z,34.37
2023-02-25T11:04:36.694Z,34.34
2023-02-25T11:05:36.720Z,34.33
2023-02-25T11:06:37.671Z,34.30
2023-02-25T11:07:37.664Z,34.28
2023-02-25T11:08:37.677Z,34.31
2023-02-25T11:09:36.682Z,34.31
2023-02-25T11:10:37.731Z,34.28
2023-02-25T11:11:37.640Z,34.32
2023-02-25T11:12:36.647Z,34.35
2023-02-25T11:13:36.634Z,34.32
2023-02-25T11:14:37.660Z,34.25
2023-02-25T11:15:45.209Z,34.29
2023-02-25T11:16:37.736Z,34.27
2023-02-25T11:17:37.621Z,34.28
2023-02-25T11:18:36.608Z,34.26
2023-02-25T11:19:37.596Z,34.27
2023-02-25T11:20:36.594Z,34.23
2023-02-25T11:21:37.580Z,34.21
2023-02-25T11:22:37.573Z,34.25
2023-02-25T11:23:37.569Z,34.17
2023-02-25T11:24:37.549Z,34.21
2023-02-25T11:25:37.561Z,34.17
2023-02-25T11:26:37.537Z,34.15
2023-02-25T11:27:39.291Z,34.16
2023-02-25T11:28:36.516Z,34.10
2023-02-25T11:29:36.514Z,34.19
2023-02-25T11:30:37.607Z,34.17
2023-02-25T11:31:36.588Z,34.15
2023-02-25T11:32:36.615Z,34.17
2023-02-25T11:33:37.494Z,34.16
2023-02-25T11:34:37.486Z,34.13
2023-02-25T11:35:36.481Z,34.16
2023-02-25T11:36:37.494Z,34.12
2023-02-25T11:37:38.205Z,34.12
2023-02-25T11:38:36.626Z,34.14
2023-02-25T11:39:36.625Z,34.11
2023-02-25T11:40:36.646Z,34.09
2023-02-25T11:41:37.621Z,34.11
2023-02-25T11:42:36.637Z,34.08
2023-02-25T11:43:36.658Z,34.13
2023-02-25T11:44:37.674Z,34.09
2023-02-25T11:45:37.734Z,34.04
2023-02-25T11:46:37.777Z,34.01
2023-02-25T11:47:36.729Z,33.99
2023-02-25T11:48:37.736Z,34.04
2023-02-25T11:49:37.738Z,34.06
2023-02-25T11:50:37.753Z,34.05
2023-02-25T11:51:37.731Z,34.12
2023-02-25T11:52:37.727Z,34.06
2023-02-25T11:53:37.765Z,34.05
2023-02-25T11:54:36.722Z,34.06
2023-02-25T11:55:37.737Z,34.01
2023-02-25T11:56:37.720Z,33.98
2023-02-25T11:57:37.727Z,34.00
2023-02-25T11:58:37.716Z,33.95
2023-02-25T11:59:37.723Z,33.99
2023-02-25T12:00:37.725Z,33.98
2023-02-25T12:01:37.727Z,33.93
2023-02-25T12:02:37.764Z,34.00
2023-02-25T12:03:37.692Z,33.97
2023-02-25T12:04:37.688Z,33.93
2023-02-25T12:05:37.750Z,34.02
2023-02-25T12:06:36.686Z,34.00
2023-02-25T12:07:37.694Z,33.98
2023-02-25T12:08:37.664Z,33.97
2023-02-25T12:09:37.661Z,33.96
2023-02-25T12:10:36.666Z,33.95
2023-02-25T12:11:37.672Z,33.93
2023-02-25T12:12:37.669Z,33.90
2023-02-25T12:13:36.721Z,33.89
2023-02-25T12:14:36.668Z,33.91
2023-02-25T12:15:36.665Z,33.93
2023-02-25T12:16:37.736Z,33.92
2023-02-25T12:17:37.649Z,33.89
2023-02-25T12:18:37.685Z,33.89
2023-02-25T12:19:37.652Z,33.94
2023-02-25T12:20:36.651Z,33.91
2023-02-25T12:21:37.690Z,33.91
2023-02-25T12:22:37.664Z,33.89
2023-02-25T12:23:36.665Z,33.87
2023-02-25T12:24:37.676Z,33.91
2023-02-25T12:25:37.664Z,33.88
2023-02-25T12:26:37.668Z,33.87
2023-02-25T12:27:37.655Z,33.83
2023-02-25T12:28:37.650Z,33.85
2023-02-25T12:29:36.648Z,33.80
2023-02-25T12:30:37.736Z,33.76
2023-02-25T12:31:37.668Z,33.78
2023-02-25T12:32:37.662Z,33.82
2023-02-25T12:33:36.659Z,33.83
2023-02-25T12:34:37.673Z,33.86
2023-02-25T12:35:36.644Z,33.88
2023-02-25T12:36:36.633Z,33.81
2023-02-25T12:37:37.624Z,33.81
2023-02-25T12:38:36.625Z,33.85
2023-02-25T12:39:37.621Z,33.87
2023-02-25T12:40:36.625Z,33.81
2023-02-25T12:41:37.642Z,33.82
2023-02-25T12:42:37.610Z,33.83
2023-02-25T12:43:37.614Z,33.80
2023-02-25T12:44:36.611Z,33.79
2023-02-25T12:45:36.625Z,33.78
2023-02-25T12:46:37.604Z,33.83
2023-02-25T12:47:37.617Z,33.84
2023-02-25T12:48:37.601Z,33.82
2023-02-25T12:49:36.591Z,33.82
2023-02-25T12:50:37.601Z,33.84
2023-02-25T12:51:37.594Z,33.84
2023-02-25T12:52:36.592Z,33.82